sensor_id;sensor_type;location;lat;lon;timestamp;P1;durP1;ratioP1;P2;durP2;ratioP2
20935;SDS011;10627;54.514;18.532;2022-09-09T00:03:57;5.38;;;2.25;;
20935;SDS011;10627;54.514;18.532;2022-09-09T00:09:04;5.18;;;1.65;;
20935;SDS011;10627;54.514;18.532;2022-09-09T00:14:13;6.47;;;1.80;;
20935;SDS011;10627;54.514;18.532;2022-09-09T00:24:29;4.05;;;1.67;;
20935;SDS011;10627;54.514;18.532;2022-09-09T00:34:46;9.80;;;1.80;;
20935;SDS011;10627;54.514;18.532;2022-09-09T00:40:41;5.13;;;1.80;;
20935;SDS011;10627;54.514;18.532;2022-09-09T00:56:28;4.28;;;2.00;;
20935;SDS011;10627;54.514;18.532;2022-09-09T01:01:31;2.65;;;1.70;;
20935;SDS011;10627;54.514;18.532;2022-09-09T01:17:11;4.85;;;1.70;;
20935;SDS011;10627;54.514;18.532;2022-09-09T01:27:31;6.80;;;1.65;;
20935;SDS011;10627;54.514;18.532;2022-09-09T01:32:43;3.47;;;1.65;;
20935;SDS011;10627;54.514;18.532;2022-09-09T01:37:46;3.95;;;1.38;;
20935;SDS011;10627;54.514;18.532;2022-09-09T01:42:46;3.58;;;1.70;;
20935;SDS011;10627;54.514;18.532;2022-09-09T01:47:47;2.65;;;1.75;;
20935;SDS011;10627;54.514;18.532;2022-09-09T01:53:03;7.82;;;1.75;;
20935;SDS011;10627;54.514;18.532;2022-09-09T02:03:17;7.43;;;2.45;;
20935;SDS011;10627;54.514;18.532;2022-09-09T02:08:42;6.65;;;1.73;;
20935;SDS011;10627;54.514;18.532;2022-09-09T02:13:51;2.92;;;2.08;;
20935;SDS011;10627;54.514;18.532;2022-09-09T02:19:11;2.83;;;1.85;;
20935;SDS011;10627;54.514;18.532;2022-09-09T02:24:39;7.63;;;2.35;;
20935;SDS011;10627;54.514;18.532;2022-09-09T02:29:51;1.75;;;1.13;;
20935;SDS011;10627;54.514;18.532;2022-09-09T02:35:02;2.33;;;1.25;;
20935;SDS011;10627;54.514;18.532;2022-09-09T02:40:04;6.55;;;2.47;;
20935;SDS011;10627;54.514;18.532;2022-09-09T02:45:07;7.80;;;2.15;;
20935;SDS011;10627;54.514;18.532;2022-09-09T02:50:52;2.45;;;1.80;;
20935;SDS011;10627;54.514;18.532;2022-09-09T02:55:41;3.05;;;1.88;;
20935;SDS011;10627;54.514;18.532;2022-09-09T03:00:50;6.38;;;1.85;;
20935;SDS011;10627;54.514;18.532;2022-09-09T03:05:52;2.60;;;1.50;;
20935;SDS011;10627;54.514;18.532;2022-09-09T03:10:54;4.82;;;1.52;;
20935;SDS011;10627;54.514;18.532;2022-09-09T03:15:55;5.85;;;1.80;;
20935;SDS011;10627;54.514;18.532;2022-09-09T03:20:56;3.47;;;2.40;;
20935;SDS011;10627;54.514;18.532;2022-09-09T03:26:00;3.88;;;1.98;;
20935;SDS011;10627;54.514;18.532;2022-09-09T03:31:10;7.32;;;1.77;;
20935;SDS011;10627;54.514;18.532;2022-09-09T03:36:14;4.75;;;1.90;;
20935;SDS011;10627;54.514;18.532;2022-09-09T03:41:15;3.85;;;1.67;;
20935;SDS011;10627;54.514;18.532;2022-09-09T03:46:17;3.75;;;2.15;;
20935;SDS011;10627;54.514;18.532;2022-09-09T03:51:18;5.55;;;2.65;;
20935;SDS011;10627;54.514;18.532;2022-09-09T03:56:20;6.30;;;2.45;;
20935;SDS011;10627;54.514;18.532;2022-09-09T04:01:22;6.93;;;2.35;;
20935;SDS011;10627;54.514;18.532;2022-09-09T04:06:23;5.40;;;2.83;;
20935;SDS011;10627;54.514;18.532;2022-09-09T04:11:24;10.17;;;3.40;;
20935;SDS011;10627;54.514;18.532;2022-09-09T04:16:27;4.70;;;3.43;;
20935;SDS011;10627;54.514;18.532;2022-09-09T04:21:28;8.73;;;3.43;;
20935;SDS011;10627;54.514;18.532;2022-09-09T04:26:29;7.43;;;3.63;;
20935;SDS011;10627;54.514;18.532;2022-09-09T04:31:30;9.40;;;3.97;;
20935;SDS011;10627;54.514;18.532;2022-09-09T04:36:31;9.27;;;4.47;;
20935;SDS011;10627;54.514;18.532;2022-09-09T04:41:35;9.47;;;4.03;;
20935;SDS011;10627;54.514;18.532;2022-09-09T04:46:36;7.93;;;3.83;;
20935;SDS011;10627;54.514;18.532;2022-09-09T04:51:37;8.03;;;4.23;;
20935;SDS011;10627;54.514;18.532;2022-09-09T04:56:38;12.20;;;4.90;;
20935;SDS011;10627;54.514;18.532;2022-09-09T05:01:39;10.20;;;4.57;;
20935;SDS011;10627;54.514;18.532;2022-09-09T05:06:42;7.90;;;4.40;;
20935;SDS011;10627;54.514;18.532;2022-09-09T05:11:42;7.33;;;4.63;;
20935;SDS011;10627;54.514;18.532;2022-09-09T05:16:57;10.27;;;4.63;;
20935;SDS011;10627;54.514;18.532;2022-09-09T05:21:58;11.67;;;4.20;;
20935;SDS011;10627;54.514;18.532;2022-09-09T05:27:09;10.73;;;4.30;;
20935;SDS011;10627;54.514;18.532;2022-09-09T05:32:13;8.73;;;3.97;;
20935;SDS011;10627;54.514;18.532;2022-09-09T05:37:21;13.80;;;5.00;;
20935;SDS011;10627;54.514;18.532;2022-09-09T05:42:24;13.60;;;4.67;;
20935;SDS011;10627;54.514;18.532;2022-09-09T05:47:25;9.20;;;4.13;;
20935;SDS011;10627;54.514;18.532;2022-09-09T05:52:29;5.50;;;3.60;;
20935;SDS011;10627;54.514;18.532;2022-09-09T05:57:32;2.93;;;1.07;;
20935;SDS011;10627;54.514;18.532;2022-09-09T06:02:33;0.50;;;0.50;;
20935;SDS011;10627;54.514;18.532;2022-09-09T06:07:34;0.20;;;0.20;;
20935;SDS011;10627;54.514;18.532;2022-09-09T06:12:37;0.13;;;0.13;;
20935;SDS011;10627;54.514;18.532;2022-09-09T06:17:39;0.37;;;0.37;;
20935;SDS011;10627;54.514;18.532;2022-09-09T06:22:41;0.10;;;0.10;;
20935;SDS011;10627;54.514;18.532;2022-09-09T06:27:42;1.73;;;0.60;;
20935;SDS011;10627;54.514;18.532;2022-09-09T06:32:44;3.03;;;2.00;;
20935;SDS011;10627;54.514;18.532;2022-09-09T06:37:45;0.10;;;0.10;;
20935;SDS011;10627;54.514;18.532;2022-09-09T06:42:50;0.57;;;0.57;;
20935;SDS011;10627;54.514;18.532;2022-09-09T06:48:13;0.30;;;0.30;;
20935;SDS011;10627;54.514;18.532;2022-09-09T06:53:15;0.27;;;0.27;;
20935;SDS011;10627;54.514;18.532;2022-09-09T06:58:17;0.10;;;0.10;;
20935;SDS011;10627;54.514;18.532;2022-09-09T07:03:18;0.57;;;0.57;;
20935;SDS011;10627;54.514;18.532;2022-09-09T07:08:19;0.10;;;0.10;;
20935;SDS011;10627;54.514;18.532;2022-09-09T07:13:24;0.20;;;0.20;;
20935;SDS011;10627;54.514;18.532;2022-09-09T07:18:27;0.20;;;0.20;;
20935;SDS011;10627;54.514;18.532;2022-09-09T07:23:29;0.33;;;0.30;;
20935;SDS011;10627;54.514;18.532;2022-09-09T07:28:30;0.23;;;0.23;;
20935;SDS011;10627;54.514;18.532;2022-09-09T07:33:32;1.03;;;0.53;;
20935;SDS011;10627;54.514;18.532;2022-09-09T07:38:41;0.20;;;0.20;;
20935;SDS011;10627;54.514;18.532;2022-09-09T07:43:44;1.53;;;1.03;;
20935;SDS011;10627;54.514;18.532;2022-09-09T07:48:48;0.30;;;0.30;;
20935;SDS011;10627;54.514;18.532;2022-09-09T07:54:00;0.97;;;0.77;;
20935;SDS011;10627;54.514;18.532;2022-09-09T07:59:04;0.37;;;0.37;;
20935;SDS011;10627;54.514;18.532;2022-09-09T08:04:09;0.20;;;0.20;;
20935;SDS011;10627;54.514;18.532;2022-09-09T08:09:13;0.20;;;0.20;;
20935;SDS011;10627;54.514;18.532;2022-09-09T08:14:15;0.20;;;0.20;;
20935;SDS011;10627;54.514;18.532;2022-09-09T08:19:16;0.30;;;0.30;;
20935;SDS011;10627;54.514;18.532;2022-09-09T08:24:18;0.20;;;0.20;;
20935;SDS011;10627;54.514;18.532;2022-09-09T08:29:23;0.10;;;0.10;;
20935;SDS011;10627;54.514;18.532;2022-09-09T08:34:25;0.20;;;0.20;;
20935;SDS011;10627;54.514;18.532;2022-09-09T08:39:29;0.20;;;0.20;;
20935;SDS011;10627;54.514;18.532;2022-09-09T08:44:55;0.87;;;0.87;;
20935;SDS011;10627;54.514;18.532;2022-09-09T08:50:27;0.30;;;0.30;;
20935;SDS011;10627;54.514;18.532;2022-09-09T08:55:54;0.20;;;0.20;;
20935;SDS011;10627;54.514;18.532;2022-09-09T09:06:41;0.50;;;0.50;;
20935;SDS011;10627;54.514;18.532;2022-09-09T09:12:16;0.47;;;0.47;;
20935;SDS011;10627;54.514;18.532;2022-09-09T09:17:23;0.13;;;0.13;;
20935;SDS011;10627;54.514;18.532;2022-09-09T09:22:37;0.13;;;0.13;;
20935;SDS011;10627;54.514;18.532;2022-09-09T09:28:01;0.60;;;0.60;;
20935;SDS011;10627;54.514;18.532;2022-09-09T09:33:26;0.67;;;0.60;;
20935;SDS011;10627;54.514;18.532;2022-09-09T09:38:31;0.50;;;0.50;;
20935;SDS011;10627;54.514;18.532;2022-09-09T09:43:35;0.20;;;0.20;;
20935;SDS011;10627;54.514;18.532;2022-09-09T09:48:41;0.10;;;0.10;;
20935;SDS011;10627;54.514;18.532;2022-09-09T09:53:43;0.20;;;0.20;;
20935;SDS011;10627;54.514;18.532;2022-09-09T10:03:52;0.57;;;0.57;;
20935;SDS011;10627;54.514;18.532;2022-09-09T10:08:55;0.20;;;0.20;;
20935;SDS011;10627;54.514;18.532;2022-09-09T10:14:11;0.67;;;0.67;;
20935;SDS011;10627;54.514;18.532;2022-09-09T10:19:33;0.60;;;0.60;;
20935;SDS011;10627;54.514;18.532;2022-09-09T10:25:40;0.70;;;0.70;;
20935;SDS011;10627;54.514;18.532;2022-09-09T10:35:33;0.93;;;0.60;;
20935;SDS011;10627;54.514;18.532;2022-09-09T10:56:56;0.33;;;0.33;;
20935;SDS011;10627;54.514;18.532;2022-09-09T11:07:07;0.20;;;0.20;;
20935;SDS011;10627;54.514;18.532;2022-09-09T11:12:12;0.30;;;0.30;;
20935;SDS011;10627;54.514;18.532;2022-09-09T11:17:24;0.28;;;0.28;;
20935;SDS011;10627;54.514;18.532;2022-09-09T11:22:44;0.55;;;0.55;;
20935;SDS011;10627;54.514;18.532;2022-09-09T11:43:31;0.20;;;0.20;;
20935;SDS011;10627;54.514;18.532;2022-09-09T11:48:37;0.83;;;0.83;;
20935;SDS011;10627;54.514;18.532;2022-09-09T11:53:59;0.43;;;0.43;;
20935;SDS011;10627;54.514;18.532;2022-09-09T11:59:06;0.50;;;0.50;;
20935;SDS011;10627;54.514;18.532;2022-09-09T12:14:35;0.43;;;0.43;;
20935;SDS011;10627;54.514;18.532;2022-09-09T12:19:37;0.60;;;0.60;;
20935;SDS011;10627;54.514;18.532;2022-09-09T12:24:43;0.50;;;0.50;;
20935;SDS011;10627;54.514;18.532;2022-09-09T12:30:02;0.77;;;0.77;;
20935;SDS011;10627;54.514;18.532;2022-09-09T12:35:12;2.00;;;1.03;;
20935;SDS011;10627;54.514;18.532;2022-09-09T12:40:24;1.17;;;1.07;;
20935;SDS011;10627;54.514;18.532;2022-09-09T12:45:27;0.40;;;0.40;;
20935;SDS011;10627;54.514;18.532;2022-09-09T12:50:32;0.83;;;0.60;;
20935;SDS011;10627;54.514;18.532;2022-09-09T12:55:36;0.40;;;0.40;;
20935;SDS011;10627;54.514;18.532;2022-09-09T13:00:37;0.80;;;0.80;;
20935;SDS011;10627;54.514;18.532;2022-09-09T13:05:51;0.50;;;0.30;;
20935;SDS011;10627;54.514;18.532;2022-09-09T13:11:01;0.70;;;0.70;;
20935;SDS011;10627;54.514;18.532;2022-09-09T13:16:05;1.38;;;0.60;;
20935;SDS011;10627;54.514;18.532;2022-09-09T13:21:40;0.40;;;0.40;;
20935;SDS011;10627;54.514;18.532;2022-09-09T13:26:42;0.50;;;0.50;;
20935;SDS011;10627;54.514;18.532;2022-09-09T13:31:44;0.37;;;0.37;;
20935;SDS011;10627;54.514;18.532;2022-09-09T13:36:49;0.30;;;0.30;;
20935;SDS011;10627;54.514;18.532;2022-09-09T13:41:49;0.90;;;0.90;;
20935;SDS011;10627;54.514;18.532;2022-09-09T13:47:03;3.25;;;1.13;;
20935;SDS011;10627;54.514;18.532;2022-09-09T13:52:21;0.77;;;0.77;;
20935;SDS011;10627;54.514;18.532;2022-09-09T13:57:23;0.30;;;0.30;;
20935;SDS011;10627;54.514;18.532;2022-09-09T14:02:25;0.83;;;0.83;;
20935;SDS011;10627;54.514;18.532;2022-09-09T14:07:26;0.70;;;0.70;;
20935;SDS011;10627;54.514;18.532;2022-09-09T14:12:27;0.40;;;0.40;;
20935;SDS011;10627;54.514;18.532;2022-09-09T14:17:27;0.70;;;0.50;;
20935;SDS011;10627;54.514;18.532;2022-09-09T14:22:31;0.83;;;0.83;;
20935;SDS011;10627;54.514;18.532;2022-09-09T14:27:31;0.30;;;0.30;;
20935;SDS011;10627;54.514;18.532;2022-09-09T14:32:33;1.23;;;1.10;;
20935;SDS011;10627;54.514;18.532;2022-09-09T14:37:33;0.87;;;0.87;;
20935;SDS011;10627;54.514;18.532;2022-09-09T14:42:35;0.70;;;0.70;;
20935;SDS011;10627;54.514;18.532;2022-09-09T14:47:43;0.20;;;0.20;;
20935;SDS011;10627;54.514;18.532;2022-09-09T14:52:43;0.30;;;0.30;;
20935;SDS011;10627;54.514;18.532;2022-09-09T14:57:44;0.43;;;0.43;;
20935;SDS011;10627;54.514;18.532;2022-09-09T15:02:45;0.38;;;0.38;;
20935;SDS011;10627;54.514;18.532;2022-09-09T15:07:46;0.33;;;0.33;;
20935;SDS011;10627;54.514;18.532;2022-09-09T15:12:48;6.37;;;1.13;;
20935;SDS011;10627;54.514;18.532;2022-09-09T15:17:49;1.80;;;1.27;;
20935;SDS011;10627;54.514;18.532;2022-09-09T15:22:49;1.07;;;0.70;;
20935;SDS011;10627;54.514;18.532;2022-09-09T15:27:51;0.90;;;0.83;;
20935;SDS011;10627;54.514;18.532;2022-09-09T15:32:51;0.53;;;0.53;;
20935;SDS011;10627;54.514;18.532;2022-09-09T15:37:53;0.33;;;0.33;;
20935;SDS011;10627;54.514;18.532;2022-09-09T15:42:57;0.30;;;0.30;;
20935;SDS011;10627;54.514;18.532;2022-09-09T15:48:16;0.37;;;0.37;;
20935;SDS011;10627;54.514;18.532;2022-09-09T15:53:17;0.23;;;0.23;;
20935;SDS011;10627;54.514;18.532;2022-09-09T15:58:22;0.30;;;0.30;;
20935;SDS011;10627;54.514;18.532;2022-09-09T16:03:25;1.00;;;0.90;;
20935;SDS011;10627;54.514;18.532;2022-09-09T16:08:32;1.40;;;0.80;;
20935;SDS011;10627;54.514;18.532;2022-09-09T16:13:34;1.10;;;1.00;;
20935;SDS011;10627;54.514;18.532;2022-09-09T16:18:47;0.50;;;0.50;;
20935;SDS011;10627;54.514;18.532;2022-09-09T16:23:52;0.60;;;0.60;;
20935;SDS011;10627;54.514;18.532;2022-09-09T16:29:02;0.30;;;0.30;;
20935;SDS011;10627;54.514;18.532;2022-09-09T16:34:04;0.47;;;0.37;;
20935;SDS011;10627;54.514;18.532;2022-09-09T16:39:07;0.50;;;0.50;;
20935;SDS011;10627;54.514;18.532;2022-09-09T16:44:09;0.67;;;0.67;;
20935;SDS011;10627;54.514;18.532;2022-09-09T16:49:14;0.50;;;0.50;;
20935;SDS011;10627;54.514;18.532;2022-09-09T16:54:21;0.30;;;0.30;;
20935;SDS011;10627;54.514;18.532;2022-09-09T16:59:23;0.37;;;0.37;;
20935;SDS011;10627;54.514;18.532;2022-09-09T17:04:27;0.97;;;0.97;;
20935;SDS011;10627;54.514;18.532;2022-09-09T17:09:28;0.33;;;0.33;;
20935;SDS011;10627;54.514;18.532;2022-09-09T17:14:32;1.03;;;1.03;;
20935;SDS011;10627;54.514;18.532;2022-09-09T17:19:37;1.40;;;1.30;;
20935;SDS011;10627;54.514;18.532;2022-09-09T17:24:37;3.30;;;1.70;;
20935;SDS011;10627;54.514;18.532;2022-09-09T17:29:39;1.03;;;1.03;;
20935;SDS011;10627;54.514;18.532;2022-09-09T17:34:43;0.50;;;0.50;;
20935;SDS011;10627;54.514;18.532;2022-09-09T17:39:44;2.27;;;1.53;;
20935;SDS011;10627;54.514;18.532;2022-09-09T17:44:47;0.60;;;0.60;;
20935;SDS011;10627;54.514;18.532;2022-09-09T17:49:51;0.83;;;0.83;;
20935;SDS011;10627;54.514;18.532;2022-09-09T17:54:52;0.20;;;0.20;;
20935;SDS011;10627;54.514;18.532;2022-09-09T17:59:56;1.00;;;1.00;;
20935;SDS011;10627;54.514;18.532;2022-09-09T18:04:57;1.13;;;1.13;;
20935;SDS011;10627;54.514;18.532;2022-09-09T18:10:01;5.93;;;1.57;;
20935;SDS011;10627;54.514;18.532;2022-09-09T18:15:01;0.70;;;0.70;;
20935;SDS011;10627;54.514;18.532;2022-09-09T18:20:02;7.73;;;1.00;;
20935;SDS011;10627;54.514;18.532;2022-09-09T18:25:04;0.70;;;0.70;;
20935;SDS011;10627;54.514;18.532;2022-09-09T18:30:05;0.47;;;0.47;;
20935;SDS011;10627;54.514;18.532;2022-09-09T18:35:06;3.43;;;2.53;;
20935;SDS011;10627;54.514;18.532;2022-09-09T18:40:07;1.90;;;1.50;;
20935;SDS011;10627;54.514;18.532;2022-09-09T18:45:10;0.83;;;0.83;;
20935;SDS011;10627;54.514;18.532;2022-09-09T18:50:11;0.67;;;0.67;;
20935;SDS011;10627;54.514;18.532;2022-09-09T18:55:12;0.60;;;0.60;;
20935;SDS011;10627;54.514;18.532;2022-09-09T19:00:13;0.57;;;0.57;;
20935;SDS011;10627;54.514;18.532;2022-09-09T19:05:14;0.97;;;0.83;;
20935;SDS011;10627;54.514;18.532;2022-09-09T19:10:15;1.93;;;1.47;;
20935;SDS011;10627;54.514;18.532;2022-09-09T19:15:15;3.00;;;1.90;;
20935;SDS011;10627;54.514;18.532;2022-09-09T19:20:17;1.10;;;1.10;;
20935;SDS011;10627;54.514;18.532;2022-09-09T19:25:22;8.03;;;2.47;;
20935;SDS011;10627;54.514;18.532;2022-09-09T19:30:23;2.33;;;2.17;;
20935;SDS011;10627;54.514;18.532;2022-09-09T19:35:25;1.60;;;1.50;;
20935;SDS011;10627;54.514;18.532;2022-09-09T19:40:27;1.60;;;1.50;;
20935;SDS011;10627;54.514;18.532;2022-09-09T19:45:30;1.90;;;1.40;;
20935;SDS011;10627;54.514;18.532;2022-09-09T19:50:33;0.87;;;0.63;;
20935;SDS011;10627;54.514;18.532;2022-09-09T19:55:37;0.87;;;0.87;;
20935;SDS011;10627;54.514;18.532;2022-09-09T20:00:38;0.67;;;0.67;;
20935;SDS011;10627;54.514;18.532;2022-09-09T20:05:39;0.87;;;0.87;;
20935;SDS011;10627;54.514;18.532;2022-09-09T20:10:48;4.00;;;2.13;;
20935;SDS011;10627;54.514;18.532;2022-09-09T20:16:07;1.17;;;0.87;;
20935;SDS011;10627;54.514;18.532;2022-09-09T20:26:13;0.93;;;0.90;;
20935;SDS011;10627;54.514;18.532;2022-09-09T20:31:21;0.40;;;0.40;;
20935;SDS011;10627;54.514;18.532;2022-09-09T20:36:27;1.77;;;1.67;;
20935;SDS011;10627;54.514;18.532;2022-09-09T20:41:31;0.50;;;0.47;;
20935;SDS011;10627;54.514;18.532;2022-09-09T20:46:35;2.27;;;1.63;;
20935;SDS011;10627;54.514;18.532;2022-09-09T20:51:37;32.20;;;19.67;;
20935;SDS011;10627;54.514;18.532;2022-09-09T20:56:39;29.33;;;18.90;;
20935;SDS011;10627;54.514;18.532;2022-09-09T21:01:42;34.10;;;20.73;;
20935;SDS011;10627;54.514;18.532;2022-09-09T21:06:44;34.22;;;20.25;;
20935;SDS011;10627;54.514;18.532;2022-09-09T21:11:45;35.40;;;20.13;;
20935;SDS011;10627;54.514;18.532;2022-09-09T21:16:49;31.53;;;19.20;;
20935;SDS011;10627;54.514;18.532;2022-09-09T21:21:50;30.90;;;20.17;;
20935;SDS011;10627;54.514;18.532;2022-09-09T21:26:50;28.77;;;18.10;;
20935;SDS011;10627;54.514;18.532;2022-09-09T21:32:08;30.10;;;20.07;;
20935;SDS011;10627;54.514;18.532;2022-09-09T21:37:11;32.03;;;18.67;;
20935;SDS011;10627;54.514;18.532;2022-09-09T21:42:16;30.10;;;18.27;;
20935;SDS011;10627;54.514;18.532;2022-09-09T21:47:17;31.83;;;19.53;;
20935;SDS011;10627;54.514;18.532;2022-09-09T21:52:20;29.57;;;19.77;;
20935;SDS011;10627;54.514;18.532;2022-09-09T21:57:20;35.60;;;19.43;;
20935;SDS011;10627;54.514;18.532;2022-09-09T22:02:21;30.07;;;19.77;;
20935;SDS011;10627;54.514;18.532;2022-09-09T22:07:21;34.77;;;21.50;;
20935;SDS011;10627;54.514;18.532;2022-09-09T22:12:23;36.03;;;22.07;;
20935;SDS011;10627;54.514;18.532;2022-09-09T22:17:25;31.27;;;19.43;;
20935;SDS011;10627;54.514;18.532;2022-09-09T22:22:27;32.37;;;21.63;;
20935;SDS011;10627;54.514;18.532;2022-09-09T22:27:27;31.60;;;20.63;;
20935;SDS011;10627;54.514;18.532;2022-09-09T22:32:28;37.10;;;24.10;;
20935;SDS011;10627;54.514;18.532;2022-09-09T22:37:29;31.90;;;20.50;;
20935;SDS011;10627;54.514;18.532;2022-09-09T22:42:32;34.00;;;19.57;;
20935;SDS011;10627;54.514;18.532;2022-09-09T22:47:34;30.03;;;19.07;;
20935;SDS011;10627;54.514;18.532;2022-09-09T22:52:39;34.87;;;18.70;;
20935;SDS011;10627;54.514;18.532;2022-09-09T22:57:40;26.47;;;17.17;;
20935;SDS011;10627;54.514;18.532;2022-09-09T23:02:41;28.27;;;17.23;;
20935;SDS011;10627;54.514;18.532;2022-09-09T23:07:42;30.50;;;18.20;;
20935;SDS011;10627;54.514;18.532;2022-09-09T23:12:42;27.97;;;18.60;;
20935;SDS011;10627;54.514;18.532;2022-09-09T23:17:43;28.37;;;17.90;;
20935;SDS011;10627;54.514;18.532;2022-09-09T23:22:44;30.27;;;16.87;;
20935;SDS011;10627;54.514;18.532;2022-09-09T23:27:44;30.53;;;16.60;;
20935;SDS011;10627;54.514;18.532;2022-09-09T23:32:47;28.70;;;16.83;;
20935;SDS011;10627;54.514;18.532;2022-09-09T23:37:49;30.27;;;15.50;;
20935;SDS011;10627;54.514;18.532;2022-09-09T23:42:49;24.87;;;14.73;;
20935;SDS011;10627;54.514;18.532;2022-09-09T23:47:50;29.03;;;16.10;;
20935;SDS011;10627;54.514;18.532;2022-09-09T23:52:50;26.13;;;16.73;;
20935;SDS011;10627;54.514;18.532;2022-09-09T23:57:52;28.07;;;16.43;;
